Time;durP1;ratioP1;P1;durP2;ratioP2;P2;SDS_P1;SDS_P2;PMS_P1;PMS_P2;Temp;Humidity;BMP_temperature;BMP_pressure;BME280_temperature;BME280_humidity;BME280_pressure;Samples;Min_cycle;Max_cycle;Signal;HPM_P1;HPM_P2
2022/09/05 00:02:00;;;;;;;9.65;7.72;;;;;;;17.54;72.37;95402.06;5133231;27;20019;-75
2022/09/05 00:04:56;;;;;;;9.15;7.53;;;;;;;17.58;72.53;95399.97;5134673;27;20031;-75
2022/09/05 00:07:28;;;;;;;8.25;7.45;;;;;;;17.56;72.23;95400.13;5132826;27;20023;-75
2022/09/05 00:09:59;;;;;;;8.43;7.60;;;;;;;17.57;71.85;95395.69;5115875;27;20046;-75
2022/09/05 00:12:26;;;;;;;10.98;7.70;;;;;;;17.54;72.12;95394.19;5116159;27;20038;-75
2022/09/05 00:15:18;;;;;;;9.18;8.00;;;;;;;17.54;72.00;95396.81;5098899;27;20515;-75
2022/09/05 00:18:25;;;;;;;9.82;7.65;;;;;;;17.51;71.73;95396.31;5132647;27;20027;-75
2022/09/05 00:21:05;;;;;;;8.75;7.95;;;;;;;17.43;71.72;95397.91;5115558;27;20027;-75
2022/09/05 00:23:53;;;;;;;9.65;8.65;;;;;;;17.48;71.89;95397.44;5134078;27;20027;-75
2022/09/05 00:26:27;;;;;;;8.50;7.55;;;;;;;17.50;71.70;95395.50;5118254;27;20034;-75
2022/09/05 00:29:06;;;;;;;8.65;7.85;;;;;;;17.52;72.00;95408.47;5133969;27;20063;-75
2022/09/05 00:31:51;;;;;;;9.32;8.43;;;;;;;17.52;72.32;95403.19;5133825;27;20026;-75
2022/09/05 00:34:39;;;;;;;9.55;8.55;;;;;;;17.49;72.78;95398.25;5132295;27;20039;-75
2022/09/05 00:37:04;;;;;;;8.90;8.00;;;;;;;17.47;73.40;95400.22;5132411;27;20293;-75
2022/09/05 00:39:35;;;;;;;11.50;8.35;;;;;;;17.45;73.12;95397.75;5115392;27;20507;-75
2022/09/05 00:42:04;;;;;;;9.57;8.45;;;;;;;17.48;73.09;95412.38;5115317;27;20050;-75
2022/09/05 00:44:31;;;;;;;9.38;8.48;;;;;;;17.46;73.60;95409.09;5115746;27;20043;-75
2022/09/05 00:47:30;;;;;;;9.35;8.55;;;;;;;17.37;73.02;95411.66;5132218;27;20019;-75
2022/09/05 00:50:02;;;;;;;10.68;8.40;;;;;;;17.37;74.04;95414.28;5116877;27;20107;-75
2022/09/05 00:52:41;;;;;;;9.27;8.48;;;;;;;17.36;71.34;95415.28;5115152;27;20118;-75
2022/09/05 00:55:26;;;;;;;10.10;9.10;;;;;;;17.20;72.63;95415.97;5098396;27;20039;-75
2022/09/05 00:57:59;;;;;;;11.13;9.02;;;;;;;17.16;73.33;95413.78;5132041;27;20042;-75
2022/09/05 01:00:44;;;;;;;10.05;9.10;;;;;;;17.18;74.74;95411.84;5132235;27;20031;-75
2022/09/05 01:03:32;;;;;;;10.07;8.98;;;;;;;17.15;74.91;95422.66;5131926;27;20038;-75
2022/09/05 01:06:10;;;;;;;10.13;9.13;;;;;;;17.11;72.83;95427.41;5132049;27;20041;-75
2022/09/05 01:08:57;;;;;;;10.10;9.13;;;;;;;17.09;73.49;95420.66;5131679;27;20561;-75
2022/09/05 01:11:26;;;;;;;9.63;8.73;;;;;;;17.08;71.56;95419.00;5132964;27;20024;-75
2022/09/05 01:14:10;;;;;;;9.63;8.60;;;;;;;17.11;72.22;95418.72;5133108;27;20126;-75
2022/09/05 01:16:57;;;;;;;9.25;8.35;;;;;;;17.05;70.78;95408.78;5132890;27;20027;-75
2022/09/05 01:19:56;;;;;;;9.02;8.00;;;;;;;16.97;71.21;95410.38;5131622;27;20036;-75
2022/09/05 01:22:21;;;;;;;9.90;8.88;;;;;;;17.03;73.81;95416.00;5131530;27;20031;-75
2022/09/05 01:25:07;;;;;;;10.30;9.07;;;;;;;17.01;74.35;95416.16;5132675;27;20031;-75
2022/09/05 01:27:44;;;;;;;10.15;9.10;;;;;;;16.97;74.57;95423.50;5131304;27;20027;-75
2022/09/05 01:30:36;;;;;;;10.25;9.35;;;;;;;17.01;75.01;95420.59;5131350;27;20069;-75
2022/09/05 01:33:13;;;;;;;9.73;8.75;;;;;;;17.02;75.13;95416.97;5124235;27;20054;-75
2022/09/05 01:35:53;;;;;;;9.35;8.52;;;;;;;16.99;75.10;95410.22;5132547;27;20023;-75
2022/09/05 01:38:56;;;;;;;10.93;9.13;;;;;;;17.01;75.14;95417.97;5131238;27;20497;-75
2022/09/05 01:41:31;;;;;;;10.95;9.50;;;;;;;16.97;74.11;95415.63;5131128;27;20039;-75
2022/09/05 01:44:06;;;;;;;10.50;9.50;;;;;;;16.94;74.39;95404.63;5130764;27;20047;-75
2022/09/05 01:47:09;;;;;;;11.40;10.38;;;;;;;16.91;74.47;95405.75;5131190;27;20031;-75
2022/09/05 01:49:36;;;;;;;10.27;9.13;;;;;;;16.86;73.54;95407.19;5132698;27;20043;-75
2022/09/05 01:52:23;;;;;;;9.88;8.80;;;;;;;16.94;71.05;95408.06;5130856;27;20019;-75
2022/09/05 01:55:17;;;;;;;9.82;8.80;;;;;;;16.93;72.98;95403.78;5132707;27;20035;-75
2022/09/05 01:57:50;;;;;;;9.77;8.88;;;;;;;16.87;73.49;95391.28;5113675;27;20068;-75
2022/09/05 02:00:22;;;;;;;11.40;8.50;;;;;;;16.96;71.52;95408.72;5114332;27;20492;-75
2022/09/05 02:03:16;;;;;;;9.05;8.00;;;;;;;16.90;70.51;95404.09;5113838;27;20027;-75
2022/09/05 02:06:00;;;;;;;9.00;8.15;;;;;;;16.96;70.47;95407.91;5131030;27;20031;-75
2022/09/05 02:08:45;;;;;;;8.32;7.53;;;;;;;16.95;69.99;95408.88;5132094;27;20046;-75
2022/09/05 02:11:11;;;;;;;8.40;7.60;;;;;;;16.96;69.72;95408.72;5130717;27;20057;-75
2022/09/05 02:13:36;;;;;;;9.07;8.18;;;;;;;16.97;71.73;95412.19;5113602;27;20054;-75
2022/09/05 02:16:11;;;;;;;8.85;7.95;;;;;;;17.01;71.72;95415.34;5130620;27;20031;-75
2022/09/05 02:18:51;;;;;;;8.30;7.50;;;;;;;16.90;71.01;95411.13;5131999;27;20106;-75
2022/09/05 02:21:37;;;;;;;8.98;8.07;;;;;;;16.94;72.47;95418.56;5132006;27;20572;-75
2022/09/05 02:24:33;;;;;;;8.98;7.47;;;;;;;16.96;72.12;95419.22;5130444;27;20493;-75
2022/09/05 02:27:17;;;;;;;8.50;7.10;;;;;;;16.94;72.71;95410.69;5130848;28;20066;-75
2022/09/05 02:30:05;;;;;;;7.90;7.05;;;;;;;16.91;71.31;95424.13;5132322;27;20031;-75
2022/09/05 02:32:48;;;;;;;7.15;6.45;;;;;;;16.86;71.65;95415.06;5131752;27;20031;-75
2022/09/05 02:35:45;;;;;;;6.70;6.10;;;;;;;16.90;71.02;95413.75;5131745;27;20516;-75
2022/09/05 02:38:21;;;;;;;6.70;6.10;;;;;;;16.88;71.32;95406.06;5105342;28;20042;-75
2022/09/05 02:40:58;;;;;;;7.30;6.40;;;;;;;16.86;71.10;95418.50;5130445;28;20031;-75
2022/09/05 02:44:03;;;;;;;6.65;5.88;;;;;;;16.87;69.06;95416.69;5113666;28;20043;-75
2022/09/05 02:46:37;;;;;;;6.53;5.72;;;;;;;16.86;69.87;95417.69;5113302;28;20043;-75
2022/09/05 02:49:12;;;;;;;6.03;5.43;;;;;;;16.94;70.58;95426.44;5130183;28;20026;-75
2022/09/05 02:52:01;;;;;;;8.50;6.00;;;;;;;16.94;71.55;95421.19;5113188;28;20172;-75
2022/09/05 02:54:29;;;;;;;6.65;4.97;;;;;;;16.90;68.72;95422.44;5132006;27;20050;-75
2022/09/05 02:57:28;;;;;;;5.88;5.03;;;;;;;16.87;69.34;95414.06;5131542;27;20035;-75
2022/09/05 03:00:00;;;;;;;6.10;5.50;;;;;;;16.89;71.23;95422.63;5132010;27;20035;-75
2022/09/05 03:02:28;;;;;;;6.03;4.88;;;;;;;16.89;69.67;95420.81;5131477;27;20472;-75
2022/09/05 03:05:06;;;;;;;5.93;4.15;;;;;;;16.95;67.10;95433.31;5130301;27;20088;-75
2022/09/05 03:07:49;;;;;;;5.45;4.30;;;;;;;16.81;67.38;95433.88;5129959;27;20027;-75
2022/09/05 03:10:34;;;;;;;6.05;4.55;;;;;;;16.80;67.63;95434.84;5130080;27;20035;-75
2022/09/05 03:13:34;;;;;;;6.97;4.60;;;;;;;16.71;67.83;95433.06;5131316;27;20035;-75
2022/09/05 03:16:23;;;;;;;5.78;4.43;;;;;;;16.71;67.21;95426.03;5135257;27;20122;-75
2022/09/05 03:19:26;;;;;;;5.90;4.45;;;;;;;16.65;67.88;95429.25;5135073;27;20102;-75
2022/09/05 03:22:06;;;;;;;5.93;4.53;;;;;;;16.71;67.63;95425.19;5133842;27;20474;-75
2022/09/05 03:24:56;;;;;;;6.35;4.63;;;;;;;16.67;67.29;95431.72;5135612;27;20027;-75
2022/09/05 03:27:28;;;;;;;6.65;4.50;;;;;;;16.63;67.53;95433.00;5134942;27;20046;-75
2022/09/05 03:30:11;;;;;;;4.95;4.43;;;;;;;16.62;67.64;95431.34;5133702;27;20598;-75
2022/09/05 03:33:22;;;;;;;5.30;4.63;;;;;;;16.61;67.40;95430.53;5133748;27;20211;-75
2022/09/05 03:36:26;;;;;;;6.63;4.83;;;;;;;16.62;67.50;95433.97;5118414;27;20492;-75
2022/09/05 03:39:10;;;;;;;5.00;4.50;;;;;;;16.60;68.08;95436.72;5134057;27;20759;-74
2022/09/05 03:42:19;;;;;;;6.43;5.10;;;;;;;16.63;68.31;95435.63;5126715;27;20042;-75
2022/09/05 03:44:48;;;;;;;5.40;4.90;;;;;;;16.43;68.37;95438.38;5111669;27;20554;-75
2022/09/05 03:47:32;;;;;;;5.28;4.72;;;;;;;16.48;67.90;95441.38;5134570;27;20064;-75
2022/09/05 03:50:22;;;;;;;5.65;5.07;;;;;;;16.38;68.12;95447.66;5133316;27;20039;-75
2022/09/05 03:53:04;;;;;;;7.67;5.03;;;;;;;16.42;67.99;95452.47;5117475;27;20059;-75
2022/09/05 03:56:07;;;;;;;6.95;5.20;;;;;;;16.47;68.30;95458.09;5133432;27;20108;-75
2022/09/05 03:58:54;;;;;;;5.53;4.97;;;;;;;16.45;68.43;95454.78;5132258;27;20053;-75
2022/09/05 04:01:34;;;;;;;5.78;4.90;;;;;;;16.55;68.65;95467.84;5121550;27;20489;-75
2022/09/05 04:04:01;;;;;;;6.10;5.10;;;;;;;16.59;68.74;95476.25;5112626;27;20228;-74
2022/09/05 04:06:57;;;;;;;5.53;4.90;;;;;;;16.62;68.38;95473.31;5127793;27;20067;-75
2022/09/05 04:09:22;;;;;;;5.63;4.70;;;;;;;16.56;67.87;95469.50;5095307;28;20039;-74
2022/09/05 04:11:57;;;;;;;5.47;4.97;;;;;;;16.60;67.98;95473.44;5122189;27;20520;-75
2022/09/05 04:14:40;;;;;;;5.20;4.70;;;;;;;16.61;69.11;95466.44;5129499;27;20035;-75
2022/09/05 04:17:17;;;;;;;7.20;5.05;;;;;;;16.61;68.11;95474.31;5127786;27;20103;-75
2022/09/05 04:19:54;;;;;;;5.65;5.07;;;;;;;16.56;68.91;95468.66;5119206;27;20023;-75
2022/09/05 04:22:47;;;;;;;6.20;5.25;;;;;;;16.63;70.14;95474.97;5108976;27;20035;-75
2022/09/05 04:25:21;;;;;;;6.05;5.45;;;;;;;16.52;70.12;95466.34;5116970;27;20036;-75
2022/09/05 04:27:52;;;;;;;5.70;5.10;;;;;;;16.59;68.69;95482.31;5116271;27;20038;-74
2022/09/05 04:30:32;;;;;;;5.93;4.78;;;;;;;16.56;69.58;95482.59;5115226;27;20042;-74
2022/09/05 04:33:22;;;;;;;6.32;5.10;;;;;;;16.61;70.03;95490.84;5111406;28;20489;-74
2022/09/05 04:35:54;;;;;;;6.00;5.40;;;;;;;16.63;70.06;95496.78;5117615;27;20046;-74
2022/09/05 04:38:37;;;;;;;6.10;5.05;;;;;;;16.67;71.11;95495.50;5130232;27;20031;-74
2022/09/05 04:41:24;;;;;;;5.70;5.20;;;;;;;16.70;70.87;95497.00;5115295;27;20508;-74
2022/09/05 04:43:59;;;;;;;10.93;5.00;;;;;;;16.65;70.52;95491.38;5111616;28;20092;-74
2022/09/05 04:46:27;;;;;;;5.75;5.20;;;;;;;16.62;70.27;95494.31;5107574;27;20031;-74
2022/09/05 04:49:05;;;;;;;7.70;5.28;;;;;;;16.66;70.91;95501.75;5108709;28;20032;-74
2022/09/05 04:52:00;;;;;;;6.22;5.18;;;;;;;16.76;69.52;95506.91;5102246;27;20388;-74
2022/09/05 04:55:04;;;;;;;7.88;5.43;;;;;;;16.77;70.66;95518.25;5127150;27;20062;-74
2022/09/05 04:57:41;;;;;;;6.30;5.15;;;;;;;16.76;70.81;95512.16;5091226;28;20188;-74
2022/09/05 05:00:14;;;;;;;6.63;5.50;;;;;;;16.77;70.42;95516.47;5117495;27;20048;-74
2022/09/05 05:02:47;;;;;;;6.20;5.63;;;;;;;16.84;71.45;95514.91;5107351;28;20024;-74
2022/09/05 05:05:42;;;;;;;6.28;5.43;;;;;;;16.86;70.64;95525.25;5105306;28;20539;-74
2022/09/05 05:08:17;;;;;;;6.13;5.53;;;;;;;16.93;69.82;95529.75;5103660;27;20523;-75
2022/09/05 05:10:51;;;;;;;7.28;5.60;;;;;;;16.94;70.07;95534.03;5120192;27;20031;-72
2022/09/05 05:13:44;;;;;;;5.70;5.18;;;;;;;16.96;70.49;95534.69;5103062;27;20038;-75
2022/09/05 05:16:24;;;;;;;10.50;7.70;;;;;;;17.04;70.38;95547.06;5111789;27;20032;-74
2022/09/05 05:19:05;;;;;;;6.93;6.13;;;;;;;17.09;69.66;95551.88;5108235;27;20103;-74
2022/09/05 05:21:30;;;;;;;;;;;;;;;17.09;70.01;95546.63;5125793;27;20035;-75
2022/09/05 05:23:59;;;;;;;6.15;5.55;;;;;;;17.17;72.52;95546.72;5110551;28;19922;-76
2022/09/05 05:26:47;;;;;;;6.13;5.50;;;;;;;17.10;71.25;95535.97;5112042;28;20032;-75
2022/09/05 05:29:25;;;;;;;6.00;5.40;;;;;;;17.28;67.82;95558.81;5110575;27;20027;-75
2022/09/05 05:31:52;;;;;;;7.60;5.72;;;;;;;17.16;68.01;95545.03;5086972;28;20185;-76
2022/09/05 05:34:33;;;;;;;5.93;5.40;;;;;;;17.22;66.01;95560.22;5089909;27;20105;-74
2022/09/05 05:37:08;;;;;;;7.60;5.47;;;;;;;17.28;67.01;95559.63;5109998;28;20042;-76
2022/09/05 05:39:35;;;;;;;6.55;5.85;;;;;;;17.36;66.02;95564.13;5111181;27;20034;-76
2022/09/05 05:42:00;;;;;;;8.10;5.70;;;;;;;17.41;65.01;95565.31;5096389;27;20060;-75
2022/09/05 05:44:30;;;;;;;6.18;5.57;;;;;;;17.48;65.76;95562.91;5129314;27;20043;-74
2022/09/05 05:47:02;;;;;;;6.43;5.30;;;;;;;17.50;65.36;95562.78;5121985;27;20050;-75
2022/09/05 05:49:37;;;;;;;6.50;5.88;;;;;;;17.58;65.74;95568.09;5104666;27;20428;-75
2022/09/05 05:52:22;;;;;;;6.35;5.75;;;;;;;17.54;65.67;95564.09;5127957;27;20023;-73
2022/09/05 05:54:58;;;;;;;6.40;5.47;;;;;;;17.66;64.65;95568.13;5117112;27;20083;-75
2022/09/05 05:57:24;;;;;;;6.05;5.45;;;;;;;17.84;63.33;95571.59;5130772;27;20023;-75
2022/09/05 05:59:52;;;;;;;6.30;5.70;;;;;;;17.95;63.81;95567.91;5128250;27;20042;-76
2022/09/05 06:02:54;;;;;;;6.75;6.05;;;;;;;18.04;64.14;95560.88;5111145;28;20400;-73
2022/09/05 06:05:34;;;;;;;6.00;5.40;;;;;;;18.09;62.56;95564.69;5131006;27;20039;-75
2022/09/05 06:08:08;;;;;;;7.35;5.30;;;;;;;18.17;62.89;95556.03;5151117;27;20055;-76
2022/09/05 06:10:53;;;;;;;5.88;5.00;;;;;;;18.31;62.33;95568.59;5145119;27;20028;-74
2022/09/05 06:13:49;;;;;;;5.85;5.15;;;;;;;18.44;63.10;95567.34;5110415;28;20122;-75
2022/09/05 06:16:40;;;;;;;7.72;5.32;;;;;;;18.63;63.07;95576.81;5127328;27;20034;-74
2022/09/05 06:19:40;;;;;;;6.60;6.00;;;;;;;18.77;61.42;95565.69;5132148;27;20052;-74
2022/09/05 06:22:14;;;;;;;7.35;6.22;;;;;;;18.94;60.47;95567.44;5132130;27;20027;-77
2022/09/05 06:24:52;;;;;;;7.80;4.85;;;;;;;18.99;58.60;95572.19;5127791;27;20092;-74
2022/09/05 06:27:42;;;;;;;5.18;4.03;;;;;;;19.16;58.37;95576.50;5123351;28;20118;-74
2022/09/05 06:30:08;;;;;;;7.18;4.50;;;;;;;19.41;57.54;95566.00;5115516;27;20067;-74
2022/09/05 06:33:13;;;;;;;6.32;3.80;;;;;;;19.66;56.56;95566.06;5098570;28;20055;-74
2022/09/05 06:36:17;;;;;;;5.18;4.10;;;;;;;20.01;55.08;95567.53;5073974;28;20024;-74
2022/09/05 06:39:03;;;;;;;4.40;3.97;;;;;;;20.12;53.95;95566.38;5125514;28;20093;-74
2022/09/05 06:41:29;;;;;;;4.97;4.00;;;;;;;20.19;55.22;95576.06;5110537;28;20023;-74
2022/09/05 06:44:14;;;;;;;5.35;4.05;;;;;;;20.37;54.33;95573.22;5119250;28;20210;-72
2022/09/05 06:46:42;;;;;;;5.00;3.92;;;;;;;20.41;55.86;95578.97;5129105;28;20095;-72
2022/09/05 06:49:18;;;;;;;5.05;3.20;;;;;;;20.41;52.91;95582.44;5133831;27;20034;-75
2022/09/05 06:51:54;;;;;;;4.93;3.33;;;;;;;20.50;52.11;95572.69;5117340;27;20027;-75
2022/09/05 06:54:29;;;;;;;4.85;3.22;;;;;;;20.56;50.85;95581.75;5123989;27;20042;-76
2022/09/05 06:57:29;;;;;;;4.78;3.35;;;;;;;20.44;52.40;95568.09;5131524;27;20076;-75
2022/09/05 07:00:22;;;;;;;4.00;3.58;;;;;;;20.61;52.24;95579.44;5124798;27;20051;-75
2022/09/05 07:03:06;;;;;;;5.25;3.60;;;;;;;20.73;51.85;95578.91;5100801;27;20019;-74
2022/09/05 07:05:41;;;;;;;4.00;3.22;;;;;;;20.95;50.01;95579.97;5130522;27;20502;-73
2022/09/05 07:08:46;;;;;;;4.93;3.00;;;;;;;21.19;50.75;95581.63;5101937;27;20032;-75
2022/09/05 07:11:30;;;;;;;3.88;3.38;;;;;;;21.26;50.24;95584.44;5112184;27;20051;-74
2022/09/05 07:14:14;;;;;;;4.68;3.40;;;;;;;21.30;49.21;95583.06;5137543;27;20027;-76
2022/09/05 07:17:06;;;;;;;4.50;3.85;;;;;;;21.28;50.07;95582.41;5132589;27;20079;-75
2022/09/05 07:19:43;;;;;;;5.47;3.58;;;;;;;21.17;50.33;95580.16;5125779;27;20415;-75
2022/09/05 07:22:31;;;;;;;4.53;3.08;;;;;;;20.98;48.36;95579.63;5137969;27;20031;-74
2022/09/05 07:24:57;;;;;;;3.20;2.70;;;;;;;20.78;49.45;95570.44;5128596;27;20091;-74
2022/09/05 07:27:46;;;;;;;4.32;2.85;;;;;;;20.72;49.38;95571.97;5097503;27;20461;-76
2022/09/05 07:30:12;;;;;;;3.42;2.75;;;;;;;20.64;50.89;95582.56;5131415;27;20039;-76
2022/09/05 07:32:46;;;;;;;4.60;2.88;;;;;;;20.68;49.74;95572.50;5133220;27;20485;-72
2022/09/05 07:35:16;;;;;;;3.55;2.80;;;;;;;20.78;49.97;95574.91;5131522;27;20474;-72
2022/09/05 07:37:42;;;;;;;3.42;2.80;;;;;;;20.87;49.46;95569.44;5093662;28;20027;-76
2022/09/05 07:40:10;;;;;;;5.38;2.85;;;;;;;20.96;49.20;95555.19;5098388;27;20031;-76
2022/09/05 07:42:41;;;;;;;2.80;2.28;;;;;;;21.14;49.25;95560.19;5104249;28;20455;-74
2022/09/05 07:45:20;;;;;;;3.00;2.60;;;;;;;21.23;48.07;95563.63;5126861;27;20113;-77
2022/09/05 07:48:35;;;;;;;2.50;2.25;;;;;;;21.38;48.85;95561.91;5090285;27;20066;-76
2022/09/05 07:51:02;;;;;;;3.63;2.60;;;;;;;21.42;48.37;95562.38;5104403;27;20679;-76
2022/09/05 07:53:27;;;;;;;3.28;2.70;;;;;;;21.51;46.63;95560.50;5114172;27;20071;-74
2022/09/05 07:55:57;;;;;;;2.50;2.22;;;;;;;21.53;46.87;95554.03;5115781;27;20084;-73
2022/09/05 07:58:48;;;;;;;4.20;2.57;;;;;;;21.58;46.74;95558.78;5112124;27;20039;-75
2022/09/05 08:01:15;;;;;;;2.80;2.42;;;;;;;21.57;44.01;95554.50;5136320;27;20785;-74
2022/09/05 08:03:41;;;;;;;2.72;2.42;;;;;;;21.56;46.17;95561.63;5122766;27;20029;-76
2022/09/05 08:06:09;;;;;;;4.18;2.08;;;;;;;21.59;46.93;95558.63;5116580;27;20042;-79
2022/09/05 08:08:47;;;;;;;2.90;2.30;;;;;;;21.68;44.53;95556.75;5121223;27;20035;-76
2022/09/05 08:11:13;;;;;;;3.28;2.55;;;;;;;21.51;46.49;95542.00;5117921;27;20019;-77
2022/09/05 08:13:38;;;;;;;3.70;3.03;;;;;;;21.78;47.24;95559.94;5118693;27;20026;-76
2022/09/05 08:16:03;;;;;;;3.00;2.63;;;;;;;21.88;45.70;95564.19;5119125;27;20441;-76
2022/09/05 08:18:57;;;;;;;3.92;2.50;;;;;;;22.06;43.40;95562.00;5103515;27;20031;-74
2022/09/05 08:21:26;;;;;;;3.17;2.30;;;;;;;22.17;42.95;95555.47;5118757;27;20444;-75
2022/09/05 08:24:12;;;;;;;2.70;2.25;;;;;;;22.02;43.71;95560.75;5106827;27;20037;-77
2022/09/05 08:26:50;;;;;;;3.08;2.38;;;;;;;22.07;44.12;95563.66;5120825;27;20454;-76
2022/09/05 08:29:25;;;;;;;3.08;2.53;;;;;;;22.08;44.20;95555.53;5110364;27;20040;-76
2022/09/05 08:32:12;;;;;;;5.45;2.33;;;;;;;22.13;43.21;95557.66;5124424;27;20034;-76
2022/09/05 08:34:53;;;;;;;3.72;2.28;;;;;;;22.15;44.63;95560.09;5120913;27;20527;-75
2022/09/05 08:37:20;;;;;;;3.10;2.50;;;;;;;22.25;43.03;95553.56;5111211;27;20027;-75
2022/09/05 08:39:51;;;;;;;2.83;2.30;;;;;;;22.44;41.78;95552.22;5129262;27;20428;-83
2022/09/05 08:42:42;;;;;;;3.20;2.72;;;;;;;22.50;42.82;95558.63;5107638;27;20038;-74
2022/09/05 08:45:14;;;;;;;4.97;1.95;;;;;;;22.57;41.02;95556.06;5120432;27;20051;-75
2022/09/05 08:48:20;;;;;;;2.85;2.47;;;;;;;22.67;41.00;95561.88;5127878;27;20027;-76
2022/09/05 08:51:04;;;;;;;3.33;2.58;;;;;;;22.64;42.89;95564.91;5111431;28;20050;-74
2022/09/05 08:54:00;;;;;;;3.28;2.60;;;;;;;22.77;44.94;95559.78;5113885;27;20532;-74
2022/09/05 08:57:04;;;;;;;3.70;2.60;;;;;;;22.99;44.32;95560.72;5123848;27;20027;-74
2022/09/05 09:00:00;;;;;;;3.95;2.70;;;;;;;23.16;43.72;95562.13;5087913;28;20135;-75
2022/09/05 09:02:46;;;;;;;3.50;2.40;;;;;;;23.27;43.48;95554.69;5059225;28;20024;-74
2022/09/05 09:05:37;;;;;;;3.10;2.40;;;;;;;23.42;41.91;95555.44;5118761;27;20044;-76
2022/09/05 09:08:16;;;;;;;3.38;2.53;;;;;;;23.53;42.25;95560.25;5128186;27;20027;-76
2022/09/05 09:10:56;;;;;;;3.70;2.55;;;;;;;23.62;41.50;95555.63;5107196;27;20043;-77
2022/09/05 09:13:36;;;;;;;4.63;2.60;;;;;;;23.75;40.39;95554.97;5114861;27;20035;-74
2022/09/05 09:16:37;;;;;;;3.85;2.35;;;;;;;23.73;40.80;95557.00;5126458;27;20478;-73
2022/09/05 09:19:10;;;;;;;4.15;2.50;;;;;;;23.67;40.75;95536.50;5106857;28;20172;-73
2022/09/05 09:21:54;;;;;;;3.63;2.67;;;;;;;23.84;40.48;95561.78;5098557;27;20031;-72
2022/09/05 09:24:36;;;;;;;3.40;2.63;;;;;;;23.77;39.80;95553.78;5140810;27;20042;-75
2022/09/05 09:27:08;;;;;;;5.03;2.67;;;;;;;23.81;39.40;95554.22;5110971;27;20034;-73
2022/09/05 09:29:36;;;;;;;6.65;2.60;;;;;;;23.65;40.75;95560.56;5109329;28;20183;-76
2022/09/05 09:32:20;;;;;;;3.75;2.75;;;;;;;23.57;40.24;95553.56;5110557;28;20092;-73
2022/09/05 09:35:04;;;;;;;3.22;2.70;;;;;;;23.53;39.76;95570.84;5125008;27;20035;-75
2022/09/05 09:37:55;;;;;;;4.20;2.42;;;;;;;23.52;40.24;95561.28;5116055;27;20031;-74
2022/09/05 09:40:40;;;;;;;3.25;2.50;;;;;;;23.58;39.07;95557.84;5106582;27;20516;-76
2022/09/05 09:43:13;;;;;;;3.42;2.30;;;;;;;23.56;38.19;95553.75;5125475;27;20055;-75
2022/09/05 09:46:16;;;;;;;2.78;2.38;;;;;;;23.42;41.01;95550.16;5123575;27;20031;-75
2022/09/05 09:48:51;;;;;;;3.38;2.63;;;;;;;23.36;41.33;95546.41;5114775;27;20628;-77
2022/09/05 09:51:41;;;;;;;3.33;2.45;;;;;;;23.41;39.34;95538.72;5110646;28;20061;-77
2022/09/05 09:54:40;;;;;;;3.67;2.33;;;;;;;23.46;40.28;95534.69;5108271;27;20493;-77
2022/09/05 09:57:44;;;;;;;2.78;2.40;;;;;;;23.56;40.72;95538.66;5107919;28;20042;-77
2022/09/05 10:00:13;;;;;;;3.92;2.70;;;;;;;23.74;40.38;95526.81;5109386;28;20062;-77
2022/09/05 10:03:08;;;;;;;4.05;2.58;;;;;;;23.94;39.35;95529.63;5108257;28;20273;-76
2022/09/05 10:05:42;;;;;;;4.13;2.53;;;;;;;23.94;40.11;95522.47;5086594;28;20038;-76
2022/09/05 10:08:32;;;;;;;3.45;2.80;;;;;;;23.91;39.97;95517.56;5108910;28;20047;-76
2022/09/05 10:11:09;;;;;;;3.90;2.72;;;;;;;23.85;39.10;95521.81;5108123;28;20067;-76
2022/09/05 10:13:40;;;;;;;3.33;2.38;;;;;;;23.74;39.64;95521.53;5091182;28;20497;-76
2022/09/05 10:16:40;;;;;;;3.10;2.60;;;;;;;23.77;39.80;95516.66;5108907;28;20056;-76
2022/09/05 10:19:36;;;;;;;3.50;2.60;;;;;;;23.79;40.43;95513.78;5108387;28;20059;-77
2022/09/05 10:22:05;;;;;;;3.70;2.67;;;;;;;23.64;39.47;95512.00;5109935;28;20485;-77
2022/09/05 10:25:07;;;;;;;3.97;2.75;;;;;;;23.66;39.23;95511.00;5111855;28;20492;-76
2022/09/05 10:28:05;;;;;;;3.75;2.55;;;;;;;23.66;38.87;95511.00;5111250;28;20027;-77
2022/09/05 10:30:49;;;;;;;3.05;2.30;;;;;;;23.77;38.69;95499.91;5110182;28;20467;-76
2022/09/05 10:33:51;;;;;;;4.28;2.50;;;;;;;23.69;38.43;95498.19;5111393;28;20110;-76
2022/09/05 10:36:24;;;;;;;4.85;2.55;;;;;;;23.35;39.96;95497.09;5111311;28;20047;-76
2022/09/05 10:39:10;;;;;;;5.57;2.42;;;;;;;23.28;40.25;95498.03;5110092;28;20051;-77
2022/09/05 10:41:59;;;;;;;2.90;2.50;;;;;;;23.31;40.23;95482.56;5111363;28;20042;-77
2022/09/05 10:44:25;;;;;;;3.38;2.60;;;;;;;23.33;40.01;95490.31;5093315;28;20067;-77
2022/09/05 10:47:20;;;;;;;3.63;2.95;;;;;;;23.31;40.77;95495.00;5111290;28;20505;-77
2022/09/05 10:49:50;;;;;;;4.35;2.45;;;;;;;23.33;40.71;95488.50;5110166;28;20089;-77
2022/09/05 10:52:28;;;;;;;4.38;2.42;;;;;;;23.40;40.57;95489.38;5110291;28;20458;-77
2022/09/05 10:54:57;;;;;;;3.65;2.50;;;;;;;23.50;40.90;95486.41;5110149;28;20197;-77
2022/09/05 10:57:29;;;;;;;2.72;2.42;;;;;;;23.50;40.51;95486.41;5111151;28;20032;-77
2022/09/05 11:00:10;;;;;;;3.70;2.88;;;;;;;23.59;39.79;95489.72;5110111;28;20035;-77
2022/09/05 11:02:45;;;;;;;4.35;2.80;;;;;;;23.64;39.94;95479.38;5111182;28;20028;-76
2022/09/05 11:05:25;;;;;;;3.05;2.70;;;;;;;23.70;40.62;95478.59;5093125;28;20035;-77
2022/09/05 11:08:10;;;;;;;4.10;2.72;;;;;;;23.74;39.76;95479.91;5111046;28;20020;-77
2022/09/05 11:10:49;;;;;;;3.30;2.63;;;;;;;23.58;39.45;95480.97;5111214;28;20078;-77
2022/09/05 11:13:49;;;;;;;3.65;2.72;;;;;;;23.61;39.79;95475.28;5111269;28;20023;-77
2022/09/05 11:16:48;;;;;;;4.87;2.40;;;;;;;23.75;39.37;95475.41;5109836;28;20026;-76
2022/09/05 11:19:42;;;;;;;5.75;2.83;;;;;;;23.88;38.32;95469.38;5094915;28;20308;-76
2022/09/05 11:22:07;;;;;;;4.55;3.70;;;;;;;23.84;38.60;95480.38;5077207;28;20038;-76
2022/09/05 11:24:41;;;;;;;2.85;2.35;;;;;;;23.61;38.38;95467.31;5092947;28;20035;-76
2022/09/05 11:27:06;;;;;;;3.20;2.85;;;;;;;23.61;39.64;95464.66;5110784;28;20473;-76
2022/09/05 11:29:42;;;;;;;3.05;2.70;;;;;;;23.62;39.96;95453.06;5109748;28;20032;-76
2022/09/05 11:32:16;;;;;;;3.63;2.80;;;;;;;23.76;38.33;95458.47;5092810;28;20063;-76
2022/09/05 11:34:44;;;;;;;6.07;2.90;;;;;;;23.80;38.82;95462.41;5110084;28;20032;-76
2022/09/05 11:37:30;;;;;;;4.82;2.83;;;;;;;23.88;39.93;95456.94;5114561;28;20605;-77
2022/09/05 11:40:14;;;;;;;3.97;2.97;;;;;;;23.92;37.33;95460.03;5113961;28;20104;-77
2022/09/05 11:42:48;;;;;;;6.22;3.13;;;;;;;23.92;38.26;95454.72;5114302;28;20055;-77
2022/09/05 11:45:32;;;;;;;3.08;2.75;;;;;;;23.98;38.23;95457.41;5114471;28;20125;-77
2022/09/05 11:48:00;;;;;;;4.07;2.60;;;;;;;24.06;38.32;95446.63;5095982;28;20036;-76
2022/09/05 11:50:56;;;;;;;5.35;3.10;;;;;;;24.17;38.20;95447.09;5114332;28;20087;-77
2022/09/05 11:53:36;;;;;;;3.20;2.78;;;;;;;24.06;36.43;95443.97;5112858;28;20428;-77
2022/09/05 11:56:10;;;;;;;3.55;3.22;;;;;;;23.96;37.70;95448.84;5095901;28;20096;-77
2022/09/05 11:58:54;;;;;;;3.55;3.03;;;;;;;23.98;38.03;95436.16;5114323;28;20034;-77
2022/09/05 12:01:33;;;;;;;3.13;2.70;;;;;;;24.15;37.41;95438.50;5113028;28;20471;-77
2022/09/05 12:04:31;;;;;;;3.30;2.80;;;;;;;24.24;36.71;95434.69;5095808;28;20501;-76
2022/09/05 12:07:22;;;;;;;3.30;2.67;;;;;;;24.22;36.98;95442.03;5114059;28;20481;-77
2022/09/05 12:10:09;;;;;;;3.35;3.05;;;;;;;24.28;36.80;95435.94;5113934;27;20428;-77
2022/09/05 12:12:44;;;;;;;3.78;2.60;;;;;;;24.14;35.82;95432.38;5113777;28;20554;-76
2022/09/05 12:15:15;;;;;;;4.90;2.60;;;;;;;24.01;36.36;95434.97;5112634;28;20028;-76
2022/09/05 12:18:01;;;;;;;3.55;2.63;;;;;;;23.77;36.66;95425.66;5114039;28;20038;-77
2022/09/05 12:21:03;;;;;;;4.93;3.88;;;;;;;23.71;37.42;95414.00;5112386;27;20032;-77
2022/09/05 12:23:34;;;;;;;4.03;2.80;;;;;;;23.78;38.34;95421.97;5110341;28;20423;-77
2022/09/05 12:26:22;;;;;;;4.78;4.00;;;;;;;23.79;38.85;95413.00;5112407;28;20028;-77
2022/09/05 12:28:51;;;;;;;6.00;5.03;;;;;;;23.82;37.88;95410.78;5112414;28;20036;-77
2022/09/05 12:31:26;;;;;;;7.68;5.43;;;;;;;23.91;38.73;95421.25;5095336;28;20051;-77
2022/09/05 12:33:52;;;;;;;4.10;3.47;;;;;;;23.80;37.62;95419.97;5113479;28;20035;-77
2022/09/05 12:36:52;;;;;;;5.55;3.30;;;;;;;23.77;38.44;95412.38;5112123;28;20042;-77
2022/09/05 12:39:32;;;;;;;5.20;3.03;;;;;;;23.81;38.77;95414.44;5111879;28;20075;-77
2022/09/05 12:42:16;;;;;;;3.50;2.80;;;;;;;23.94;39.12;95423.50;5095568;28;20481;-77